Time;durP1;ratioP1;P1;durP2;ratioP2;P2;SDS_P1;SDS_P2;PMS_P1;PMS_P2;Temp;Humidity;BMP_temperature;BMP_pressure;BME280_temperature;BME280_humidity;BME280_pressure;Samples;Min_cycle;Max_cycle;Signal;HPM_P1;HPM_P2
2021/11/25 00:00:17;;;;;;;40.53;17.60;;;8.30;73.70;;;;;;5085605;28;20204;-84
2021/11/25 00:02:43;;;;;;;32.37;15.50;;;8.20;73.30;;;;;;5104600;28;20183;-84
2021/11/25 00:05:10;;;;;;;31.73;15.20;;;8.20;73.00;;;;;;5115428;28;20438;-85
2021/11/25 00:07:36;;;;;;;31.77;13.75;;;8.20;72.50;;;;;;5098056;28;20450;-85
2021/11/25 00:10:04;;;;;;;34.30;15.43;;;8.10;72.20;;;;;;5104818;28;20196;-84
2021/11/25 00:12:30;;;;;;;31.35;14.57;;;8.30;72.30;;;;;;5101567;28;20245;-85
2021/11/25 00:14:56;;;;;;;34.63;16.10;;;8.20;72.10;;;;;;5111631;28;20247;-85
2021/11/25 00:17:22;;;;;;;36.57;17.00;;;8.40;72.10;;;;;;5104657;28;20185;-85
2021/11/25 00:19:49;;;;;;;36.30;15.45;;;8.80;71.00;;;;;;5093204;28;20470;-85
2021/11/25 00:22:15;;;;;;;29.90;15.17;;;8.80;70.00;;;;;;5100883;28;20548;-84
2021/11/25 00:24:41;;;;;;;35.30;16.73;;;8.70;70.30;;;;;;5104868;28;20234;-85
2021/11/25 00:27:07;;;;;;;30.03;16.70;;;8.80;70.70;;;;;;5090403;28;20486;-85
2021/11/25 00:29:33;;;;;;;31.50;15.97;;;8.80;69.90;;;;;;5088805;28;20426;-84
2021/11/25 00:31:59;;;;;;;27.13;13.57;;;8.90;69.70;;;;;;5086465;28;20444;-84
2021/11/25 00:34:24;;;;;;;34.87;15.40;;;8.90;69.60;;;;;;5105042;28;20445;-85
2021/11/25 00:36:50;;;;;;;33.00;15.57;;;8.70;69.70;;;;;;5116657;28;20626;-85
2021/11/25 00:39:16;;;;;;;27.50;13.70;;;8.50;70.00;;;;;;5090949;28;20542;-84
2021/11/25 00:41:45;;;;;;;26.70;14.60;;;8.50;70.20;;;;;;5110803;28;20219;-85
2021/11/25 00:44:10;;;;;;;37.42;14.73;;;8.50;70.40;;;;;;5091454;28;20196;-85
2021/11/25 00:46:36;;;;;;;26.33;13.77;;;8.60;70.60;;;;;;5103259;28;20180;-84
2021/11/25 00:49:03;;;;;;;23.47;12.37;;;8.60;70.50;;;;;;5097804;28;20418;-84
2021/11/25 00:51:29;;;;;;;29.52;13.55;;;8.60;70.40;;;;;;5096992;28;20190;-84
2021/11/25 00:53:54;;;;;;;29.20;13.90;;;8.50;70.30;;;;;;5104076;28;20203;-85
2021/11/25 00:56:20;;;;;;;26.57;14.27;;;8.40;70.20;;;;;;5081279;28;20797;-84
2021/11/25 00:58:46;;;;;;;34.53;14.20;;;8.30;70.20;;;;;;5081690;28;20180;-84
2021/11/25 01:01:12;;;;;;;29.60;13.43;;;8.20;70.10;;;;;;5080759;28;20214;-85
2021/11/25 01:03:38;;;;;;;29.80;14.70;;;8.30;70.50;;;;;;5080892;28;20215;-85
2021/11/25 01:06:04;;;;;;;33.70;16.20;;;8.30;70.70;;;;;;5082021;28;20172;-85
2021/11/25 01:08:29;;;;;;;29.60;16.83;;;8.30;70.90;;;;;;5106678;28;20247;-84
2021/11/25 01:10:56;;;;;;;40.43;18.50;;;8.20;71.00;;;;;;5080736;28;20493;-84
2021/11/25 01:13:21;;;;;;;44.03;18.83;;;8.10;71.60;;;;;;5088925;28;20454;-85
2021/11/25 01:15:47;;;;;;;46.33;20.40;;;8.10;72.00;;;;;;5098843;28;20662;-85
2021/11/25 01:18:16;;;;;;;36.27;18.93;;;8.10;72.30;;;;;;5090283;28;20435;-84
2021/11/25 01:20:43;;;;;;;49.75;19.83;;;8.10;72.50;;;;;;5088905;28;20230;-84
2021/11/25 01:23:12;;;;;;;44.35;20.23;;;8.20;72.70;;;;;;5098508;28;20274;-84
2021/11/25 01:25:39;;;;;;;43.95;19.95;;;8.20;72.80;;;;;;5092250;28;20203;-84
2021/11/25 01:28:12;;;;;;;50.75;20.98;;;8.30;73.10;;;;;;5104942;28;20187;-84
2021/11/25 01:30:39;;;;;;;39.80;20.65;;;8.60;73.00;;;;;;5112824;28;20191;-84
2021/11/25 01:33:04;;;;;;;45.60;21.40;;;8.70;72.40;;;;;;5096675;28;20179;-84
2021/11/25 01:35:30;;;;;;;52.10;22.33;;;8.60;72.40;;;;;;5080667;28;20206;-85
2021/11/25 01:37:56;;;;;;;54.53;24.60;;;8.40;72.40;;;;;;5052915;28;20214;-84
2021/11/25 01:40:22;;;;;;;46.57;22.50;;;8.40;72.90;;;;;;5105389;28;20226;-84
2021/11/25 01:42:47;;;;;;;50.67;23.23;;;8.30;73.00;;;;;;5078956;28;20647;-85
2021/11/25 01:45:14;;;;;;;46.37;22.70;;;8.30;73.10;;;;;;5079039;28;20435;-84
2021/11/25 01:47:45;;;;;;;47.70;22.55;;;8.20;73.30;;;;;;5097819;28;20179;-84
2021/11/25 01:50:13;;;;;;;58.75;22.80;;;8.30;73.70;;;;;;5061317;28;20176;-84
2021/11/25 01:52:39;;;;;;;56.83;23.95;;;8.40;73.70;;;;;;5077661;28;20259;-84
2021/11/25 01:55:06;;;;;;;42.15;21.80;;;8.50;73.70;;;;;;5098283;28;20204;-84
2021/11/25 01:57:33;;;;;;;55.65;25.80;;;8.50;73.60;;;;;;5081044;28;20272;-85
2021/11/25 01:59:59;;;;;;;44.92;22.88;;;8.70;73.50;;;;;;5109476;28;20200;-84
2021/11/25 02:02:25;;;;;;;45.80;22.37;;;8.90;72.90;;;;;;5084554;28;20172;-84
2021/11/25 02:04:50;;;;;;;49.30;21.80;;;9.00;72.20;;;;;;5108259;28;20192;-84
2021/11/25 02:07:17;;;;;;;43.03;21.17;;;9.10;71.80;;;;;;5094203;28;20512;-85
2021/11/25 02:09:44;;;;;;;56.65;23.90;;;9.10;71.80;;;;;;5112723;28;20503;-84
2021/11/25 02:12:10;;;;;;;45.10;24.85;;;9.10;71.60;;;;;;5103516;28;20681;-85
2021/11/25 02:14:37;;;;;;;50.67;24.53;;;9.10;71.60;;;;;;5071500;28;20212;-85
2021/11/25 02:17:03;;;;;;;52.78;23.48;;;8.90;71.90;;;;;;5099415;28;20202;-84
2021/11/25 02:19:29;;;;;;;55.17;22.85;;;8.80;72.30;;;;;;5089750;28;20229;-84
2021/11/25 02:21:55;;;;;;;53.47;24.10;;;8.50;72.70;;;;;;5081144;28;20176;-84
2021/11/25 02:24:21;;;;;;;54.75;24.77;;;8.60;73.20;;;;;;5086380;28;20228;-85
2021/11/25 02:26:47;;;;;;;53.37;23.50;;;8.70;73.30;;;;;;5081491;28;20180;-84
2021/11/25 02:29:13;;;;;;;54.13;23.73;;;8.70;73.30;;;;;;5082328;28;20413;-85
2021/11/25 02:31:40;;;;;;;52.50;23.70;;;8.50;73.30;;;;;;5091983;28;20180;-85
2021/11/25 02:34:05;;;;;;;47.75;22.25;;;8.50;73.20;;;;;;5115131;28;20426;-85
2021/11/25 02:36:31;;;;;;;54.93;24.70;;;8.50;73.00;;;;;;5098931;28;20191;-85
2021/11/25 02:38:58;;;;;;;53.03;23.67;;;8.50;72.80;;;;;;5107084;28;20233;-83
2021/11/25 02:41:25;;;;;;;52.90;25.17;;;8.50;72.90;;;;;;5116809;28;20552;-84
2021/11/25 02:43:53;;;;;;;49.50;24.20;;;8.90;72.80;;;;;;5101154;28;20291;-84
2021/11/25 02:46:19;;;;;;;55.75;21.90;;;9.00;72.00;;;;;;5108116;28;20160;-83
2021/11/25 02:48:48;;;;;;;43.70;22.15;;;9.00;71.70;;;;;;5104320;28;20174;-84
2021/11/25 02:51:19;;;;;;;51.75;22.50;;;9.10;71.20;;;;;;5101928;28;20176;-84
2021/11/25 02:53:47;;;;;;;52.33;21.20;;;9.20;70.40;;;;;;5101249;28;20227;-84
2021/11/25 02:56:16;;;;;;;50.30;22.10;;;9.10;70.20;;;;;;5120053;28;20171;-84
2021/11/25 02:58:44;;;;;;;43.33;21.90;;;9.20;70.10;;;;;;5109261;28;20193;-84
2021/11/25 03:01:21;;;;;;;44.30;20.42;;;9.20;70.10;;;;;;5104436;28;20211;-83
2021/11/25 03:03:48;;;;;;;46.67;20.98;;;9.00;70.30;;;;;;5104954;28;20180;-84
2021/11/25 03:06:14;;;;;;;51.25;24.63;;;8.70;70.90;;;;;;5098862;28;20187;-84
2021/11/25 03:08:40;;;;;;;44.42;21.55;;;8.60;71.50;;;;;;5094406;28;20183;-83
2021/11/25 03:11:09;;;;;;;51.80;23.38;;;8.70;72.00;;;;;;5084211;28;20234;-83
2021/11/25 03:13:37;;;;;;;43.15;20.85;;;9.00;71.60;;;;;;5069301;28;20255;-84
2021/11/25 03:16:04;;;;;;;60.17;25.42;;;9.00;71.20;;;;;;5095223;28;20203;-85
2021/11/25 03:18:30;;;;;;;55.92;23.52;;;9.10;70.70;;;;;;5090112;28;20262;-83
2021/11/25 03:20:57;;;;;;;49.10;24.20;;;9.20;70.50;;;;;;5091913;28;20207;-84
2021/11/25 03:23:26;;;;;;;51.92;23.73;;;8.90;70.80;;;;;;5098234;28;20186;-84
2021/11/25 03:25:55;;;;;;;59.00;25.90;;;8.60;71.30;;;;;;5092269;28;20193;-84
2021/11/25 03:28:22;;;;;;;53.97;24.98;;;8.70;72.00;;;;;;5084889;28;20167;-84
2021/11/25 03:30:55;;;;;;;62.67;23.17;;;8.80;72.20;;;;;;5111383;28;20191;-83
2021/11/25 03:33:28;;;;;;;62.58;25.67;;;8.90;72.30;;;;;;5088698;28;20270;-84
2021/11/25 03:35:55;;;;;;;57.20;23.15;;;8.90;72.20;;;;;;5114031;28;20171;-83
2021/11/25 03:38:21;;;;;;;55.47;25.77;;;9.10;71.60;;;;;;5103428;28;20176;-84
2021/11/25 03:40:48;;;;;;;58.90;25.43;;;9.10;71.20;;;;;;5096108;28;20541;-85
2021/11/25 03:43:14;;;;;;;50.20;23.70;;;9.00;71.20;;;;;;5119392;28;20424;-84
2021/11/25 03:45:39;;;;;;;53.73;23.03;;;8.80;71.60;;;;;;5096238;28;20200;-85
2021/11/25 03:48:06;;;;;;;53.93;23.50;;;8.70;72.20;;;;;;5115974;28;20466;-86
2021/11/25 03:50:32;;;;;;;54.28;25.00;;;8.70;72.60;;;;;;5092625;28;20410;-85
2021/11/25 03:52:58;;;;;;;53.50;24.40;;;9.00;72.10;;;;;;5080942;28;20188;-85
2021/11/25 03:55:24;;;;;;;50.37;22.60;;;9.10;72.00;;;;;;5084239;28;20200;-85
2021/11/25 03:57:50;;;;;;;49.70;22.50;;;9.00;71.70;;;;;;5097542;28;20171;-85
2021/11/25 04:00:19;;;;;;;65.10;26.30;;;9.10;71.80;;;;;;5105099;28;20457;-85
2021/11/25 04:02:47;;;;;;;51.50;23.35;;;9.00;71.60;;;;;;5088560;28;20417;-85
2021/11/25 04:05:14;;;;;;;54.55;25.30;;;8.70;71.90;;;;;;5118482;28;20175;-84
2021/11/25 04:07:40;;;;;;;61.35;25.38;;;8.80;72.20;;;;;;5102842;28;20172;-85
2021/11/25 04:10:08;;;;;;;63.73;26.60;;;8.70;72.50;;;;;;5099230;28;20182;-85
2021/11/25 04:12:34;;;;;;;63.47;27.25;;;8.70;72.70;;;;;;5095399;28;20427;-85
2021/11/25 04:15:00;;;;;;;66.83;25.20;;;8.70;72.90;;;;;;5099259;28;20249;-84
2021/11/25 04:17:26;;;;;;;61.28;26.65;;;8.70;73.10;;;;;;5112963;28;20456;-84
2021/11/25 04:19:52;;;;;;;51.40;24.43;;;8.70;73.20;;;;;;5102746;28;20171;-84
2021/11/25 04:22:21;;;;;;;64.38;25.73;;;8.70;73.30;;;;;;5111088;28;20425;-84
2021/11/25 04:24:51;;;;;;;63.95;26.48;;;8.60;73.50;;;;;;5106337;28;20191;-84
2021/11/25 04:27:17;;;;;;;65.65;27.20;;;8.50;73.80;;;;;;5096658;28;20703;-84
2021/11/25 04:29:49;;;;;;;51.88;23.98;;;8.40;74.10;;;;;;5105957;28;20635;-85
2021/11/25 04:37:47;;;;;;;62.72;27.40;;;8.80;73.40;;;;;;5104279;28;20217;-85
2021/11/25 04:40:13;;;;;;;72.40;27.80;;;8.90;73.30;;;;;;5077966;28;20207;-86
2021/11/25 04:42:39;;;;;;;65.75;30.08;;;8.80;73.30;;;;;;5096456;28;20406;-84
2021/11/25 04:45:06;;;;;;;71.87;29.27;;;8.70;73.50;;;;;;5080873;28;20287;-84
2021/11/25 04:47:32;;;;;;;64.38;26.38;;;8.60;73.80;;;;;;5081147;28;20193;-84
2021/11/25 04:49:57;;;;;;;62.13;28.33;;;8.40;74.10;;;;;;5080741;28;20225;-84
2021/11/25 04:52:23;;;;;;;74.10;29.20;;;8.30;74.40;;;;;;5080134;28;20933;-85
2021/11/25 04:54:49;;;;;;;63.47;26.70;;;8.30;74.70;;;;;;5085612;28;20441;-85
2021/11/25 04:57:16;;;;;;;63.63;27.03;;;8.40;74.80;;;;;;5079469;28;20432;-84
2021/11/25 04:59:41;;;;;;;60.72;26.30;;;8.40;75.00;;;;;;5092330;28;20179;-85
2021/11/25 05:02:07;;;;;;;71.07;29.40;;;8.60;75.00;;;;;;5099995;28;20183;-85
2021/11/25 05:04:33;;;;;;;61.40;30.47;;;8.60;75.00;;;;;;5086922;28;20200;-84
2021/11/25 05:06:59;;;;;;;62.77;28.37;;;8.70;75.10;;;;;;5080072;28;20270;-84
2021/11/25 05:09:24;;;;;;;58.33;28.10;;;8.60;74.40;;;;;;5098485;28;20418;-83
2021/11/25 05:11:50;;;;;;;61.10;27.30;;;8.80;74.40;;;;;;5087086;28;20598;-84
2021/11/25 05:14:16;;;;;;;70.35;27.92;;;8.80;74.10;;;;;;5082941;28;20560;-84
2021/11/25 05:16:44;;;;;;;59.97;28.13;;;8.90;74.10;;;;;;5101332;28;20211;-84
2021/11/25 05:19:10;;;;;;;66.15;28.17;;;8.90;74.20;;;;;;5112824;28;20204;-85
2021/11/25 05:21:37;;;;;;;62.13;26.50;;;8.80;74.30;;;;;;5069362;28;20275;-84
2021/11/25 05:24:03;;;;;;;73.80;29.15;;;8.90;74.50;;;;;;5091163;28;20195;-84
2021/11/25 05:26:29;;;;;;;75.28;28.15;;;8.90;74.50;;;;;;5089694;28;20330;-85
2021/11/25 05:28:54;;;;;;;73.60;30.23;;;9.00;74.50;;;;;;5119421;28;20176;-84
2021/11/25 05:31:22;;;;;;;62.23;29.53;;;8.90;74.40;;;;;;5094714;28;20457;-85
2021/11/25 05:33:48;;;;;;;66.13;30.10;;;8.90;74.60;;;;;;5117868;28;20227;-84
2021/11/25 05:36:14;;;;;;;70.95;29.10;;;8.80;74.70;;;;;;5089202;28;20188;-84
2021/11/25 05:38:40;;;;;;;74.07;27.93;;;8.80;75.10;;;;;;5108220;28;20197;-84
2021/11/25 05:41:05;;;;;;;80.33;32.80;;;8.60;75.50;;;;;;5096148;28;20207;-84
2021/11/25 05:43:31;;;;;;;72.13;30.43;;;8.40;76.20;;;;;;5102480;28;20421;-84
2021/11/25 05:45:57;;;;;;;73.73;32.33;;;8.40;76.80;;;;;;5085464;28;20180;-84
2021/11/25 05:48:23;;;;;;;73.43;31.50;;;8.40;77.20;;;;;;5066027;28;20179;-85
2021/11/25 05:50:50;;;;;;;77.40;32.78;;;8.40;77.50;;;;;;5083655;28;20986;-84
2021/11/25 05:53:20;;;;;;;89.72;33.83;;;8.40;77.90;;;;;;5098092;28;20255;-85
2021/11/25 05:55:49;;;;;;;74.85;32.35;;;8.40;79.00;;;;;;5082451;28;20172;-86
2021/11/25 05:58:15;;;;;;;92.90;35.10;;;8.50;78.70;;;;;;5094951;28;20180;-83
2021/11/25 06:00:42;;;;;;;65.13;33.55;;;8.40;78.90;;;;;;5093816;28;20222;-85
2021/11/25 06:03:07;;;;;;;77.63;34.25;;;8.30;79.40;;;;;;5115984;28;20190;-85
2021/11/25 06:05:33;;;;;;;77.77;32.80;;;8.30;79.70;;;;;;5095180;28;20674;-86
2021/11/25 06:07:59;;;;;;;78.13;33.97;;;8.20;80.00;;;;;;5087132;28;20425;-83
2021/11/25 06:10:26;;;;;;;91.43;34.22;;;8.30;80.40;;;;;;5106446;28;20191;-84
2021/11/25 06:12:53;;;;;;;91.95;34.25;;;8.20;80.70;;;;;;5094214;28;20182;-84
2021/11/25 06:15:22;;;;;;;86.60;35.25;;;8.10;81.00;;;;;;5091326;28;20242;-84
2021/11/25 06:17:48;;;;;;;76.57;34.13;;;8.30;81.20;;;;;;5103570;28;20180;-84
2021/11/25 06:20:15;;;;;;;83.45;36.58;;;8.40;81.00;;;;;;5085978;28;20208;-83
2021/11/25 06:22:43;;;;;;;86.32;36.05;;;8.50;81.10;;;;;;5107019;28;20191;-84
2021/11/25 06:25:11;;;;;;;78.43;37.60;;;8.70;80.40;;;;;;5105356;28;20210;-83
2021/11/25 06:27:38;;;;;;;92.25;36.15;;;8.70;80.00;;;;;;5102314;28;20182;-83
2021/11/25 06:30:09;;;;;;;93.28;36.70;;;8.80;79.80;;;;;;5108480;28;20172;-83
2021/11/25 06:32:35;;;;;;;87.90;35.25;;;8.80;79.70;;;;;;5091764;28;20234;-83
2021/11/25 06:35:01;;;;;;;93.05;36.10;;;8.80;79.60;;;;;;5092843;28;20204;-84
2021/11/25 06:37:27;;;;;;;92.97;36.57;;;8.70;79.80;;;;;;5106529;28;20199;-84
2021/11/25 06:39:52;;;;;;;80.60;36.00;;;8.40;79.80;;;;;;5115885;28;20418;-86
2021/11/25 06:42:18;;;;;;;90.33;34.87;;;8.20;80.60;;;;;;5101873;28;20186;-86
2021/11/25 06:44:44;;;;;;;95.40;35.50;;;8.30;81.10;;;;;;5093113;28;20669;-83
2021/11/25 06:47:10;;;;;;;84.37;35.67;;;8.30;81.20;;;;;;5095646;28;20176;-83
2021/11/25 06:49:36;;;;;;;81.57;35.93;;;8.10;81.50;;;;;;5088459;28;20425;-83
2021/11/25 06:52:02;;;;;;;97.50;35.70;;;8.20;81.90;;;;;;5087640;28;20426;-83
2021/11/25 06:54:27;;;;;;;91.47;36.85;;;8.30;82.20;;;;;;5069085;28;20456;-84
2021/11/25 06:56:53;;;;;;;91.13;37.63;;;8.30;82.20;;;;;;5113536;28;20202;-83
2021/11/25 06:59:19;;;;;;;84.90;32.87;;;8.30;82.10;;;;;;5107641;28;20630;-83
2021/11/25 07:01:45;;;;;;;100.77;39.83;;;8.30;82.20;;;;;;5102801;28;20192;-84
2021/11/25 07:04:16;;;;;;;92.27;36.47;;;8.40;81.90;;;;;;5087836;28;20195;-84
2021/11/25 07:06:44;;;;;;;88.50;34.20;;;8.40;81.70;;;;;;5096304;28;20232;-84
2021/11/25 07:09:11;;;;;;;80.10;33.50;;;8.20;81.90;;;;;;5103137;28;20182;-84
2021/11/25 07:11:36;;;;;;;85.85;35.33;;;8.20;83.00;;;;;;5109050;28;20187;-84
2021/11/25 07:14:03;;;;;;;80.97;34.87;;;8.50;82.10;;;;;;5082208;28;20211;-84
2021/11/25 07:16:29;;;;;;;99.60;37.33;;;8.30;82.10;;;;;;5082469;28;20418;-84
2021/11/25 07:18:54;;;;;;;82.68;34.88;;;8.30;82.30;;;;;;5097141;28;20190;-83
2021/11/25 07:21:20;;;;;;;93.20;36.73;;;8.50;82.50;;;;;;5091006;28;20190;-84
2021/11/25 07:23:46;;;;;;;79.37;35.53;;;8.70;82.00;;;;;;5082024;28;20199;-84
2021/11/25 07:26:12;;;;;;;83.83;36.97;;;8.70;81.50;;;;;;5083099;28;20182;-84
2021/11/25 07:28:38;;;;;;;90.70;36.10;;;8.70;81.40;;;;;;5065740;28;20184;-82
2021/11/25 07:31:04;;;;;;;97.53;38.28;;;8.70;81.40;;;;;;5084631;28;20191;-82
2021/11/25 07:33:30;;;;;;;98.63;36.72;;;8.80;81.40;;;;;;5098267;28;20204;-84
2021/11/25 07:35:56;;;;;;;92.93;39.47;;;8.60;81.10;;;;;;5098098;28;20183;-84
2021/11/25 07:38:22;;;;;;;92.88;37.17;;;8.30;81.50;;;;;;5069285;28;20181;-84
2021/11/25 07:40:49;;;;;;;98.67;36.10;;;8.00;82.60;;;;;;5071882;28;20634;-84
2021/11/25 07:43:18;;;;;;;83.88;37.78;;;7.90;83.40;;;;;;5098265;28;20175;-86
2021/11/25 07:45:44;;;;;;;84.60;36.97;;;8.20;83.80;;;;;;5080208;28;20203;-85
2021/11/25 07:48:10;;;;;;;88.57;38.10;;;8.20;83.80;;;;;;5070403;28;20255;-85
2021/11/25 07:50:37;;;;;;;89.40;34.22;;;8.20;83.80;;;;;;5097877;28;20721;-84
2021/11/25 07:53:03;;;;;;;97.28;40.20;;;8.30;84.10;;;;;;5078552;28;20183;-85
2021/11/25 07:55:29;;;;;;;103.27;41.23;;;8.50;84.00;;;;;;5079353;28;20223;-84
2021/11/25 07:57:56;;;;;;;78.70;37.47;;;8.60;83.50;;;;;;5079417;28;20417;-85
2021/11/25 08:00:22;;;;;;;80.90;36.65;;;8.60;83.20;;;;;;5079048;28;20194;-84
2021/11/25 08:02:49;;;;;;;81.03;36.00;;;8.70;82.90;;;;;;5098072;28;20172;-86
2021/11/25 08:05:15;;;;;;;81.78;33.95;;;8.80;82.40;;;;;;5078715;28;20346;-86
2021/11/25 08:07:57;;;;;;;76.53;34.30;;;8.70;82.20;;;;;;5097477;28;20266;-86
2021/11/25 08:10:26;;;;;;;84.55;34.40;;;8.60;82.40;;;;;;5079702;28;20422;-86
2021/11/25 08:12:54;;;;;;;75.45;33.63;;;8.70;82.50;;;;;;5079908;28;20176;-86
2021/11/25 08:15:20;;;;;;;80.55;34.70;;;8.90;82.40;;;;;;5104292;28;20223;-86
2021/11/25 08:17:46;;;;;;;81.95;34.58;;;8.90;81.90;;;;;;5079592;28;20184;-86
2021/11/25 08:20:13;;;;;;;74.40;36.92;;;8.70;81.90;;;;;;5079717;28;20203;-86
2021/11/25 08:22:40;;;;;;;86.03;35.53;;;8.60;82.20;;;;;;5084801;28;20190;-82
2021/11/25 08:25:08;;;;;;;70.18;35.88;;;8.70;82.40;;;;;;5065329;28;20200;-82
2021/11/25 08:27:35;;;;;;;95.97;36.33;;;8.70;82.40;;;;;;5098490;28;20176;-82
2021/11/25 08:30:00;;;;;;;77.15;35.17;;;8.60;82.40;;;;;;5103903;28;20225;-82
2021/11/25 08:32:26;;;;;;;72.70;34.60;;;8.90;82.50;;;;;;5085656;28;20172;-82
2021/11/25 08:34:54;;;;;;;96.53;37.73;;;9.10;82.00;;;;;;5085583;28;20256;-83
2021/11/25 08:37:20;;;;;;;87.90;37.95;;;9.10;81.60;;;;;;5086475;28;20172;-82
2021/11/25 08:39:45;;;;;;;100.50;38.55;;;9.00;81.40;;;;;;5104465;28;20185;-82
2021/11/25 08:42:11;;;;;;;105.03;38.97;;;9.00;81.50;;;;;;5086639;28;20176;-83
2021/11/25 08:44:37;;;;;;;91.97;36.83;;;9.00;81.50;;;;;;5104296;28;20213;-83
2021/11/25 08:47:03;;;;;;;80.07;38.05;;;9.00;81.20;;;;;;5088223;28;20414;-83
2021/11/25 08:49:30;;;;;;;94.50;38.55;;;8.90;81.30;;;;;;5105974;28;20190;-84
2021/11/25 08:51:56;;;;;;;74.25;36.22;;;9.10;81.30;;;;;;5105551;28;20190;-84
2021/11/25 08:54:23;;;;;;;79.23;36.70;;;9.00;81.00;;;;;;5104640;28;20613;-83
2021/11/25 08:56:49;;;;;;;88.35;37.10;;;9.10;81.20;;;;;;5091756;28;20869;-82
2021/11/25 08:59:15;;;;;;;86.75;38.40;;;9.10;81.30;;;;;;5095964;28;20184;-83
2021/11/25 09:01:41;;;;;;;86.80;37.13;;;9.30;81.10;;;;;;5114476;28;20192;-82
2021/11/25 09:04:06;;;;;;;80.93;34.57;;;9.30;80.40;;;;;;5096631;28;20437;-83
2021/11/25 09:06:32;;;;;;;71.67;34.83;;;9.30;80.50;;;;;;5096164;28;20201;-84
2021/11/25 09:08:59;;;;;;;70.00;35.00;;;9.30;80.40;;;;;;5097319;28;20184;-84
2021/11/25 09:11:25;;;;;;;71.63;36.00;;;9.30;80.50;;;;;;5115154;28;20179;-83
2021/11/25 09:13:51;;;;;;;76.07;35.27;;;9.20;80.60;;;;;;5097055;28;20294;-82
2021/11/25 09:16:17;;;;;;;67.73;34.83;;;9.20;80.80;;;;;;5112812;28;20194;-81
2021/11/25 09:18:43;;;;;;;71.25;34.72;;;9.10;80.90;;;;;;5095796;28;20186;-83
2021/11/25 09:21:10;;;;;;;71.32;34.95;;;9.40;80.70;;;;;;5095443;28;20266;-82
2021/11/25 09:23:36;;;;;;;65.18;35.95;;;9.50;80.60;;;;;;5093747;28;20182;-82
2021/11/25 09:26:02;;;;;;;76.78;35.92;;;9.70;80.40;;;;;;5091722;28;20182;-82
2021/11/25 09:28:28;;;;;;;66.77;35.10;;;9.90;79.50;;;;;;5093702;28;20183;-81
2021/11/25 09:30:54;;;;;;;83.97;35.83;;;9.90;78.80;;;;;;5097792;28;20410;-81
2021/11/25 09:33:21;;;;;;;81.40;35.30;;;9.80;78.60;;;;;;5111875;28;20222;-81
2021/11/25 09:35:47;;;;;;;70.90;34.92;;;9.40;78.80;;;;;;5094279;28;20200;-81
2021/11/25 09:38:14;;;;;;;73.60;35.08;;;9.30;80.10;;;;;;5093184;28;20180;-80
2021/11/25 09:40:44;;;;;;;70.95;36.67;;;9.40;80.70;;;;;;5086043;28;20292;-81
2021/11/25 09:43:13;;;;;;;82.65;36.42;;;9.40;81.00;;;;;;5081880;28;20206;-84
2021/11/25 09:45:45;;;;;;;75.32;33.75;;;9.40;81.30;;;;;;5094455;28;20199;-86
2021/11/25 09:48:12;;;;;;;77.32;34.20;;;9.50;81.70;;;;;;5104547;28;20190;-82
2021/11/25 09:50:43;;;;;;;75.25;36.80;;;9.60;81.50;;;;;;5090715;28;20188;-82
2021/11/25 09:53:12;;;;;;;69.78;35.58;;;9.50;81.20;;;;;;5112624;28;20192;-82
2021/11/25 09:55:46;;;;;;;79.30;36.58;;;9.40;81.30;;;;;;5099181;28;20495;-82
2021/11/25 09:58:13;;;;;;;78.90;36.03;;;9.40;81.60;;;;;;5090929;28;20179;-83
2021/11/25 10:00:42;;;;;;;64.90;35.70;;;9.30;81.80;;;;;;5107510;28;22106;-83
2021/11/25 10:03:08;;;;;;;71.65;35.83;;;9.20;82.00;;;;;;5087656;28;20194;-84
2021/11/25 10:05:34;;;;;;;77.83;34.13;;;9.20;82.20;;;;;;5095869;28;20179;-83
2021/11/25 10:07:59;;;;;;;85.57;37.43;;;9.30;82.40;;;;;;5102242;28;20421;-83
2021/11/25 10:10:28;;;;;;;93.57;35.80;;;9.30;82.40;;;;;;5102749;28;20458;-84
2021/11/25 10:13:15;;;;;;;71.60;36.33;;;9.30;82.30;;;;;;5101951;28;20164;-85
2021/11/25 10:15:42;;;;;;;82.60;37.42;;;9.40;82.40;;;;;;5102602;28;20646;-84
2021/11/25 10:18:15;;;;;;;82.88;35.80;;;9.60;82.40;;;;;;5085560;28;20187;-83
2021/11/25 10:20:43;;;;;;;79.30;39.60;;;9.70;81.90;;;;;;5110797;28;20303;-83
2021/11/25 10:23:19;;;;;;;76.47;37.22;;;9.80;81.60;;;;;;5091996;28;20179;-84
2021/11/25 10:26:06;;;;;;;71.30;36.97;;;9.60;81.30;;;;;;5093426;28;20643;-84
2021/11/25 10:28:41;;;;;;;75.20;34.90;;;9.50;81.30;;;;;;5092973;28;20591;-84
2021/11/25 10:31:25;;;;;;;69.50;36.00;;;9.30;81.40;;;;;;5110391;28;20194;-83
2021/11/25 10:33:55;;;;;;;70.30;35.25;;;9.50;81.30;;;;;;5111255;28;20195;-83
2021/11/25 10:36:32;;;;;;;77.68;35.30;;;9.50;81.10;;;;;;5093726;28;20199;-83
2021/11/25 10:39:13;;;;;;;65.05;34.72;;;9.50;81.20;;;;;;5087738;28;20190;-83
2021/11/25 10:41:42;;;;;;;80.63;36.30;;;9.50;81.30;;;;;;5110215;28;20217;-83
2021/11/25 10:44:07;;;;;;;85.32;37.28;;;9.50;81.40;;;;;;5095258;28;20196;-84
2021/11/25 10:46:40;;;;;;;71.17;33.47;;;9.40;81.50;;;;;;5094442;28;20251;-84
2021/11/25 10:49:07;;;;;;;71.40;36.53;;;9.50;81.80;;;;;;5092046;28;20429;-84
2021/11/25 10:51:35;;;;;;;78.70;36.85;;;9.30;82.00;;;;;;5094366;28;20180;-84
2021/11/25 10:54:17;;;;;;;77.13;36.28;;;9.20;82.30;;;;;;5092373;28;20199;-84
2021/11/25 10:56:50;;;;;;;75.60;37.70;;;9.20;82.70;;;;;;5111446;28;20675;-84
2021/11/25 10:59:21;;;;;;;84.10;37.15;;;9.20;83.00;;;;;;5110450;28;20172;-84
2021/11/25 11:01:51;;;;;;;80.93;37.00;;;9.10;83.20;;;;;;5105072;28;20219;-84
2021/11/25 11:04:18;;;;;;;82.30;38.65;;;9.20;83.50;;;;;;5103377;28;20184;-84
2021/11/25 11:06:44;;;;;;;74.53;36.00;;;9.20;83.60;;;;;;5114515;28;20207;-84
2021/11/25 11:09:31;;;;;;;82.18;39.13;;;9.30;83.80;;;;;;5086566;28;20172;-84
2021/11/25 11:12:31;;;;;;;82.13;38.35;;;9.20;83.70;;;;;;5088777;28;20183;-84
2021/11/25 11:15:13;;;;;;;72.65;34.95;;;9.10;84.10;;;;;;5092278;28;20203;-83
2021/11/25 11:17:59;;;;;;;89.15;41.63;;;9.10;84.50;;;;;;5113463;28;20248;-84
2021/11/25 11:20:26;;;;;;;77.53;36.63;;;9.00;84.70;;;;;;5097613;28;20267;-84
2021/11/25 11:22:56;;;;;;;66.40;33.80;;;9.00;85.10;;;;;;5100015;28;20203;-83
2021/11/25 11:25:23;;;;;;;63.22;32.97;;;9.00;85.50;;;;;;5099163;28;20298;-84
2021/11/25 11:27:51;;;;;;;58.65;30.60;;;9.10;85.90;;;;;;5098782;28;20166;-84
2021/11/25 11:30:17;;;;;;;67.30;29.48;;;9.10;85.90;;;;;;5099251;28;20198;-84
2021/11/25 11:32:44;;;;;;;53.97;27.58;;;9.30;86.00;;;;;;5112806;28;20207;-83
2021/11/25 11:35:10;;;;;;;58.13;28.38;;;9.40;85.80;;;;;;5100974;28;20196;-83
2021/11/25 11:37:39;;;;;;;51.10;24.92;;;9.60;85.50;;;;;;5119783;28;20231;-83
2021/11/25 11:40:07;;;;;;;58.45;24.33;;;9.70;85.80;;;;;;5117198;28;20175;-81
2021/11/25 11:42:35;;;;;;;50.78;22.73;;;9.70;84.70;;;;;;5111785;28;20179;-83
2021/11/25 11:45:02;;;;;;;51.65;24.42;;;9.80;84.20;;;;;;5091243;28;20206;-83
2021/11/25 11:47:29;;;;;;;43.72;21.70;;;9.70;83.90;;;;;;5100879;28;20263;-82
2021/11/25 11:50:01;;;;;;;41.63;23.13;;;9.70;83.70;;;;;;5100388;28;20195;-82
2021/11/25 11:52:27;;;;;;;43.50;22.35;;;9.90;83.70;;;;;;5079418;28;20240;-82
2021/11/25 11:54:58;;;;;;;39.97;20.33;;;9.80;83.50;;;;;;5098049;28;20213;-82
2021/11/25 11:57:44;;;;;;;37.88;19.63;;;9.50;83.40;;;;;;5091738;28;20267;-80
2021/11/25 12:00:18;;;;;;;42.42;18.98;;;9.40;83.70;;;;;;5117829;28;20234;-80
2021/11/25 12:02:49;;;;;;;35.30;15.85;;;9.60;83.60;;;;;;5097916;28;20199;-80
2021/11/25 12:05:37;;;;;;;29.55;14.73;;;9.50;83.60;;;;;;5118024;28;20206;-80
2021/11/25 12:08:28;;;;;;;45.40;17.20;;;9.30;83.40;;;;;;5115007;28;20184;-80
2021/11/25 12:11:00;;;;;;;32.83;15.57;;;9.50;83.80;;;;;;5089637;28;20235;-80
2021/11/25 12:13:27;;;;;;;44.08;17.80;;;9.50;83.70;;;;;;5095590;28;20160;-81
2021/11/25 12:16:21;;;;;;;42.40;19.48;;;9.60;83.50;;;;;;5085391;28;20258;-82
2021/11/25 12:18:52;;;;;;;32.60;15.18;;;9.80;83.30;;;;;;5087086;28;20172;-82
2021/11/25 12:21:42;;;;;;;36.10;15.10;;;9.60;83.10;;;;;;5082548;28;20216;-83
2021/11/25 12:24:30;;;;;;;27.95;14.18;;;9.70;83.40;;;;;;5111893;28;20283;-81
2021/11/25 12:27:32;;;;;;;35.08;14.35;;;9.70;83.30;;;;;;5073678;28;20183;-81
2021/11/25 12:30:03;;;;;;;24.77;13.57;;;9.70;83.30;;;;;;5082794;28;20195;-81
2021/11/25 12:32:47;;;;;;;25.92;13.77;;;9.80;82.60;;;;;;5081587;28;20176;-81
2021/11/25 12:35:17;;;;;;;29.58;14.18;;;9.60;82.40;;;;;;5103985;28;20192;-80
2021/11/25 12:40:17;;;;;;;36.65;14.40;;;9.40;83.10;;;;;;5104088;28;20200;-81
2021/11/25 12:42:47;;;;;;;36.92;13.88;;;9.60;83.50;;;;;;5091361;28;20179;-81
2021/11/25 12:45:25;;;;;;;26.02;11.63;;;9.60;83.30;;;;;;5085548;28;20200;-81
2021/11/25 12:48:05;;;;;;;27.20;11.65;;;9.60;83.20;;;;;;5099548;28;20171;-81